Jamaica Plain, MA (02130)

8:03 PM EDT on August 29, 2016 (GMT -0400)
KMAJAMAI4 | | Change Station

Elev 148 ft 42.30 °N, 71.13 °W | Updated 20 minutes ago

Clear
Clear
76.8 °F
Feels Like 78 °F
N
5.8
Wind Variable Wind from NNW
Gusts 13.2 mph

Today
High -- | Low -- °F
--% Chance of Precip.
Yesterday
High -- | Low -- °F
Precip. -- in
Pressure 30.10 in
Visibility 10.0 miles
Clouds Clear
Heat Index 78 °F
Dew Point 54 °F
Humidity 45%
Rainfall Not available.
Snow Depth Not available.
6:07 AM 7:22 PM
Waning Crescent, 6% visible
METAR KOWD 292353Z 33005KT 10SM CLR 24/12 A3010 RMK AO2 SLP191 T02440117 10322 20244 53021
Pressure 30.10 in
Visibility 10.0 miles
Clouds Clear
Heat Index 78 °F
Dew Point 54 °F
Humidity 45%
Rainfall Not available.
Snow Depth Not available.
6:07 AM 7:22 PM
Waning Crescent, 6% visible
METAR KOWD 292353Z 33005KT 10SM CLR 24/12 A3010 RMK AO2 SLP191 T02440117 10322 20244 53021

10-Day Weather Forecast

Almanac

Astronomy

Aug. 29, 2016 Rise Set
Actual Time
Civil Twilight
Nautical Twilight
Astronomical Twilight
Moon
Length of Visible Light
Length of Day
Tomorrow will be .
, % of the Moon is Illuminated

Today's Extremes

State Highs State Lows

Community

WunderPhotos

Upload Photos

1,935,699 photos uploaded!

WunderBlog® & News

Nearby

Air Quality

  Air Quality AQ Index Pollutant
Not available.

Snow Depth

Station Depth Elevation

Earthquake Activity

City Distance Mag. Time & Date
Minimum magnitude displayed is 2.5.

Coastal Water Temperatures

Place Temperature

Stations

Nearby Weather Stations

Station Location Temp. Windchill Dew Point Humidity Wind Precip. Elev Updated Type
                   

Watches & Warnings

There are currently no watches in effect.